x

9449880 - Friday Harbor, Wa (frdw1) Weather Station

4:36 - Sat 23rd Aug 2014 All times are PDT. -7 hours from GMT.

  • Wind
    2mph
  • Sea Temp 54°f
  • Air Temp 51°f
  • Sea Pressure 1020.3mb
  • 9449880 - Friday Harbor, Wa
  • 9449880 - Friday Harbor, Wa

More Historic Weather Station data

Upgrade to MSW Pro to gain access to the past 30 days of data for over 8000 Wavebouys and Weather Stations around the globe.

Join Pro

Comparision Forecast

View Surf forecast
   
sam. 08/23 4:36 2
mph
1020.3mb 54f 51f
4:30 1 2 mph 1020.2mb 54f 51f
4:24  -  1 mph 1020.2mb 54f 52f
4:18  -  2 mph 1020.2mb 54f 52f
4:12  -  1 mph 1020.1mb 54f 52f
4:06  -  mph 1020.1mb 54f 52f
4:00  -  1 mph 1020.2mb 54f 52f
3:36 2 5 mph 1020.1mb 54f 53f
3:30 2 5 mph 1020.1mb 54f 53f
3:24 2 5 mph 1020.1mb 54f 53f
3:18 2 3 mph 1020mb 54f 53f
3:12 2 6 mph 1020mb 54f 53f
3:06 3 6 mph 1020mb 54f 53f
3:00 3 5 mph 1019.9mb 54f 53f
2:36 1 3 mph 1019.8mb 54f 53f
2:30 2 3 mph 1019.7mb 54f 53f
2:24  -  1 mph 1019.7mb 54f 53f
2:18  -  1 mph 1019.7mb 54f 53f
2:12  -  2 mph 1019.7mb 54f 53f
2:06  -  1 mph 1019.7mb 54f 53f
2:00  -  2 mph 1019.7mb 54f 53f
1:36 1 3 mph 1019.6mb 54f 53f
1:30 2 3 mph 1019.6mb 54f 53f
1:24 1 3 mph 1019.4mb 54f 53f
1:18  -  2 mph 1019.4mb 54f 53f
1:12 1 2 mph 1019.3mb 54f 54f
1:06  -  2 mph 1019.3mb 54f 53f
1:00 2 3 mph 1019.2mb 54f 53f
12:36  -  1 mph 1019.2mb 54f 54f
12:30  -  1 mph 1019.2mb 54f 54f
12:24 1 2 mph 1019.2mb 54f 54f
12:18  -  1 mph 1019.2mb 54f 54f
12:12  -  1 mph 1019.2mb 54f 55f
12:06 1 2 mph 1019.1mb 54f 54f
12:00 1
mph
1019.2mb 54f 54f
ven. 08/22 11:36  -  1 mph 1019.1mb 54f 54f
11:30  -  1 mph 1019.2mb 54f 55f
11:24 1 2 mph 1019.2mb 54f 55f
11:18  -  2 mph 1019.1mb 54f 55f
11:12  -  2 mph 1019.1mb 54f 55f
11:06 2 3 mph 1019mb 54f 55f
11:00 3 5 mph 1019.1mb 54f 55f
10:36 6 7 mph 1019mb 54f 55f
10:30 3 5 mph 1019mb 54f 55f
10:24 2 5 mph 1019mb 54f 55f
10:18 2 3 mph 1018.9mb 54f 55f
10:12 2 5 mph 1019mb 54f 55f
10:06 3 7 mph 1019mb 54f 55f
10:00 5 6 mph 1019mb 54f 55f
9:36 3 6 mph 1018.8mb 54f 55f
9:30 6 7 mph 1018.7mb 54f 55f
9:24 5 6 mph 1018.7mb 54f 55f
9:18 6 8 mph 1018.7mb 54f 55f
9:12 7 8 mph 1018.7mb 54f 56f
9:06 6 7 mph 1018.7mb 54f 56f
9:00 6 7 mph 1018.6mb 54f 56f
8:36 7
mph
1018.4mb 53f 57f
8:30 7
mph
1018.3mb 53f 57f
8:24 7
mph
1018.3mb 53f 58f
8:18 6 7 mph 1018.3mb 53f 58f
8:12 3 7 mph 1018.2mb 53f 58f
8:06 6 7 mph 1018.2mb 53f 58f
8:00 6 7 mph 1018.1mb 53f 58f
7:36  -  mph 1017.9mb 53f 60f
7:30  -  mph 1017.9mb 53f 59f
7:24  -  mph 1017.9mb 54f 59f
7:18  -  mph 1017.9mb 54f 60f
7:12  -  mph 1017.9mb 54f 60f
7:06  -  mph 1017.9mb 54f 60f
7:00  -  mph 1017.8mb 54f 60f
6:36 3
mph
1017.7mb 54f 61f
6:30 2 3 mph 1017.7mb 55f 62f
6:24 2
mph
1017.7mb 54f 65f
6:18 2
mph
1017.7mb 54f 65f
6:12 2 3 mph 1017.7mb 54f 64f
6:06 1 2 mph 1017.7mb 53f 67f
6:00 1 3 mph 1017.7mb 52f 69f
5:36 3
mph
1017.7mb 52f 68f
5:30 3
mph
1017.7mb 52f 66f
5:24 3
mph
1017.7mb 52f 65f
5:18 3 5 mph 1017.7mb 52f 66f
5:12 3 5 mph 1017.7mb 52f 66f
5:06 3 5 mph 1017.7mb 52f 67f
5:00 2 3 mph 1017.7mb 52f 66f
4:36 2 3 mph 1017.6mb 52f 68f
4:30 2 3 mph 1017.7mb 52f 68f
4:24 2
mph
1017.7mb 52f 68f
4:18 2
mph
1017.7mb 52f 68f
4:12 2 3 mph 1017.7mb 53f 68f
4:06 2 3 mph 1017.8mb 53f 67f
4:00 3
mph
1017.8mb 53f 67f
3:36 1 3 mph 1017.9mb 52f 68f
3:30 3 5 mph 1017.9mb 52f 68f
3:24 3 7 mph 1017.8mb 52f 69f
3:18 6 9 mph 1017.8mb 52f 69f
3:12 7 10 mph 1017.8mb 52f 68f
3:06 8 10 mph 1017.8mb 52f 68f
3:00 8 10 mph 1017.9mb 52f 68f
2:36 6 9 mph 1018mb 52f 67f
2:30 7 9 mph 1018mb 52f 67f
2:24 7 9 mph 1018mb 52f 66f
2:18 7 10 mph 1018mb 52f 66f
2:12 6 9 mph 1018mb 53f 66f
2:06 8 11 mph 1018mb 53f 65f
2:00 7 11 mph 1018mb 53f 65f
1:36 6 9 mph 1018.1mb 53f 65f
1:30 5 8 mph 1018mb 53f 66f
1:24 2 8 mph 1018mb 53f 66f
1:18 3 8 mph 1018.1mb 53f 65f
1:12 2 8 mph 1018.1mb 53f 65f
1:06 5 8 mph 1018.2mb 54f 65f
1:00 6 9 mph 1018.2mb 54f 64f
12:36 7 11 mph 1018.2mb 55f 64f
12:30 7 11 mph 1018.3mb 55f 64f
12:24 8 13 mph 1018.3mb 55f 64f
12:18 7 11 mph 1018.2mb 55f 64f
12:12 9 13 mph 1018.2mb 54f 64f
12:06 6 10 mph 1018.2mb 54f 64f
12:00 7 11 mph 1018.2mb 55f 64f
11:36 5 11 mph 1018.2mb 55f 64f
11:30 8 11 mph 1018.2mb 54f 64f
11:24 6 7 mph 1018.3mb 54f 64f
11:18 5 8 mph 1018.3mb 54f 62f
11:12 6 8 mph 1018.4mb 54f 59f
11:06 3 6 mph 1018.4mb 54f 58f
11:00 5 6 mph 1018.3mb 54f 58f
10:36 2 3 mph 1018.4mb 54f 57f
10:30 2 3 mph 1018.4mb 54f 57f
10:24 2 3 mph 1018.4mb 54f 56f
10:18 2 3 mph 1018.3mb 54f 56f
10:12 2 3 mph 1018.3mb 54f 55f
10:06 2 3 mph 1018.3mb 54f 55f
10:00 1 2 mph 1018.3mb 54f 55f
9:36 2
mph
1018.3mb 53f 55f
9:30 2
mph
1018.3mb 53f 55f
9:24 2
mph
1018.3mb 53f 55f
9:18 1 2 mph 1018.2mb 53f 54f
9:12 2
mph
1018.2mb 53f 54f
9:06 1 2 mph 1018.1mb 53f 54f
9:00 2
mph
1018.1mb 53f 54f
8:36 1 2 mph 1018.2mb 53f 55f
8:30 1
mph
1018.2mb 54f 54f
8:24 1
mph
1018.1mb 54f 54f
8:18  -  1 mph 1018mb 54f 54f
8:12 1 2 mph 1018mb 54f 54f
8:06 2
mph
1017.9mb 54f 53f
8:00 2
mph
1017.9mb 54f 53f
7:36 3 5 mph 1017.8mb 54f 52f
7:30 3 5 mph 1017.8mb 54f 52f
7:24 1 2 mph 1017.8mb 54f 52f
7:18 2 3 mph 1017.8mb 54f 51f
7:12 2 3 mph 1017.8mb 54f 51f
7:06 1 3 mph 1017.7mb 54f 51f
7:00 2 3 mph 1017.7mb 54f 50f
6:36  -  1 mph 1017.5mb 54f 50f
6:30 1 2 mph 1017.4mb 54f 50f
6:24 1 2 mph 1017.4mb 54f 49f
6:18 1 2 mph 1017.3mb 54f 49f
6:12 2
mph
1017.2mb 54f 49f
6:06 1 2 mph 1017.2mb 54f 49f
6:00  -  2 mph 1017.1mb 54f 49f
5:36 1 2 mph 1016.9mb 54f 50f
5:30 2 3 mph 1016.9mb 54f 50f
5:24 2 3 mph 1016.9mb 54f 49f
5:18 1 2 mph 1016.9mb 54f 49f
5:12 2 3 mph 1016.9mb 54f 50f
5:06  -  1 mph 1016.8mb 54f 50f
5:00  -  1 mph 1016.7mb 54f 50f
4:36 2 3 mph 1016.6mb 54f 50f
4:30 1 2 mph 1016.6mb 54f 50f
4:24 2 3 mph 1016.6mb 54f 50f
4:18 3
mph
1016.6mb 54f 50f
4:12 2 3 mph 1016.6mb 54f 51f
4:06  -  3 mph 1016.6mb 54f 51f
4:00 3 5 mph 1016.7mb 54f 51f
3:54 2 3 mph 1016.6mb 54f 51f
3:48 2 3 mph 1016.6mb 54f 51f
3:36 3 5 mph 1016.5mb 54f 51f
3:30 3 5 mph 1016.5mb 54f 51f
3:24 1 2 mph 1016.5mb 54f 51f
3:18 1 2 mph 1016.4mb 54f 52f
3:12 1 2 mph 1016.4mb 54f 51f
3:06 2 3 mph 1016.4mb 54f 51f
3:00 2
mph
1016.3mb 54f 51f
2:54 2 3 mph 1016.4mb 54f 51f
2:48 5
mph
1016.4mb 54f 50f
2:36  -  mph 1016.2mb 54f 51f
2:30 1 2 mph 1016.2mb 54f 51f
2:24  -  1 mph 1016.2mb 54f 52f
2:18  -  1 mph 1016mb 54f 52f
2:12  -  1 mph 1016mb 54f 52f
2:06  -  1 mph 1015.9mb 54f 51f
2:00  -  mph 1016mb 54f 52f
1:54  -  1 mph 1016mb 54f 52f
1:48  -  2 mph 1016mb 54f 52f
1:36  -  1 mph 1015.9mb 54f 52f
1:30  -  1 mph 1015.9mb 54f 52f
1:24 1 2 mph 1015.9mb 54f 52f
1:18 1 2 mph 1015.9mb 54f 52f
1:12 1 2 mph 1015.9mb 54f 52f
1:06 1 2 mph 1015.9mb 54f 53f
1:00  -  1 mph 1015.8mb 54f 53f
12:54  -  1 mph 1015.8mb 54f 53f
12:48  -  2 mph 1015.9mb 54f 53f
12:36 2 3 mph 1015.9mb 54f 53f
12:30  -  1 mph 1015.8mb 54f 53f
12:24 1 2 mph 1015.8mb 54f 53f
12:18 1 2 mph 1015.7mb 54f 53f
12:12 1 2 mph 1015.7mb 54f 53f
12:06  -  1 mph 1015.7mb 54f 53f
12:00 1 2 mph 1015.7mb 54f 53f
jeu. 08/21 11:54 1 2 mph 1015.8mb 54f 53f
11:48 2
mph
1015.8mb 54f 54f
11:36 2
mph
1015.7mb 54f 54f
11:30 1 2 mph 1015.8mb 54f 53f
11:24 2
mph
1015.8mb 54f 53f
11:18 1 3 mph 1015.7mb 54f 54f
11:12 2
mph
1015.7mb 54f 54f
11:06  -  mph 1015.7mb 54f 53f
11:00  -  1 mph 1015.6mb 53f 54f
10:54  -  1 mph 1015.6mb 53f 54f
10:48  -  1 mph 1015.6mb 53f 54f
10:36 1 2 mph 1015.6mb 53f 54f
10:30 1 2 mph 1015.5mb 53f 54f
10:24 2
mph
1015.5mb 53f 54f
10:18 2
mph
1015.5mb 53f 54f
10:12 2 3 mph 1015.5mb 53f 54f
10:06  -  1 mph 1015.6mb 53f 54f
10:00  -  1 mph 1015.6mb 53f 54f
9:36 1 2 mph 1015.6mb 53f 54f
9:30 1 3 mph 1015.6mb 53f 54f
9:24 1 2 mph 1015.6mb 54f 55f
9:18 1 3 mph 1015.6mb 54f 55f
9:12 1 2 mph 1015.5mb 54f 55f
9:06 3 5 mph 1015.5mb 54f 55f
9:00 3 5 mph 1015.4mb 54f 55f
8:54 2 5 mph 1015.4mb 54f 55f
8:48 2 3 mph 1015.4mb 54f 55f
8:36 3 5 mph 1015.3mb 54f 55f
8:30 3 5 mph 1015.3mb 54f 55f
8:24 3 5 mph 1015.3mb 54f 55f
8:18 3 5 mph 1015.2mb 54f 55f
8:12 3 5 mph 1015.2mb 54f 55f
8:06 2 5 mph 1015.2mb 54f 56f
8:00 5 7 mph 1015.1mb 54f 56f
7:54 5 8 mph 1015.1mb 53f 56f
7:48 6 8 mph 1015.1mb 53f 56f
7:36 6 9 mph 1015.1mb 53f 57f
7:30 5 6 mph 1015.2mb 53f 57f
7:24 3 5 mph 1015.2mb 53f 57f
7:18 2 5 mph 1015.2mb 53f 58f
7:12 3 6 mph 1015.2mb 54f 58f
7:06 3 6 mph 1015.3mb 53f 58f
7:00 5 7 mph 1015.2mb 53f 58f
6:54 6 8 mph 1015.2mb 54f 58f
6:48 6 7 mph 1015.2mb 54f 58f
6:36 3 6 mph 1015.3mb 54f 59f
6:30 5 7 mph 1015.3mb 55f 59f
6:24 6 7 mph 1015.3mb 55f 59f
6:18 5 7 mph 1015.3mb 55f 59f
6:12 5 6 mph 1015.3mb 55f 60f
6:06 5 6 mph 1015.2mb 55f 60f
6:00 5 7 mph 1015.3mb 55f 60f
5:54 5 7 mph 1015.3mb 55f 60f
5:48 7 9 mph 1015.2mb 55f 60f
5:36 6 8 mph 1015.3mb 55f 60f
5:30 6 10 mph 1015.3mb 55f 61f
5:24 8 11 mph 1015.3mb 55f 60f
5:18 6 8 mph 1015.3mb 55f 60f
5:12 5 8 mph 1015.3mb 54f 60f
5:06 7 9 mph 1015.4mb 53f 60f
5:00 6 9 mph 1015.4mb 52f 60f
4:54 7 9 mph 1015.4mb 53f 60f
4:48 6 9 mph 1015.4mb 52f 60f
4:36 7 10 mph 1015.5mb 53f 60f
4:30 7 10 mph 1015.5mb 53f 60f
4:24 6 9 mph 1015.5mb 53f 60f
4:18 7 10 mph 1015.6mb 52f 60f
4:12 6 9 mph 1015.6mb 52f 60f
4:06 7 9 mph 1015.6mb 52f 60f
4:00 7 10 mph 1015.7mb 52f 61f
3:54 7 9 mph 1015.7mb 53f 60f
3:48 7 10 mph 1015.8mb 53f 61f
3:36 8 10 mph 1015.8mb 53f 61f
3:30 7 9 mph 1015.9mb 53f 61f
3:24 7 13 mph 1016mb 53f 61f
3:18 7 9 mph 1016mb 53f 61f
3:12 7 10 mph 1016.1mb 53f 61f
3:06 5 10 mph 1016.2mb 53f 61f
3:00 7 10 mph 1016.2mb 53f 61f
2:54 7 10 mph 1016.3mb 53f 61f
2:48 8 10 mph 1016.3mb 53f 60f
2:36 3 8 mph 1016.5mb 53f 61f
2:30 7 10 mph 1016.6mb 54f 60f
2:24 6 8 mph 1016.7mb 54f 60f
2:18 6 7 mph 1016.8mb 54f 60f
2:12 5 9 mph 1016.8mb 54f 60f
2:06 6 8 mph 1016.9mb 54f 59f
2:00 7 9 mph 1016.9mb 54f 59f
1:54 7 10 mph 1017mb 54f 59f
1:48 8 10 mph 1017mb 54f 59f
1:36 6 8 mph 1017.1mb 53f 59f
1:30 6 8 mph 1017.1mb 53f 59f
1:24 8 10 mph 1017.1mb 53f 58f
1:18 6 8 mph 1017.1mb 53f 58f
1:12 6 8 mph 1017.1mb 53f 58f
1:06 6 9 mph 1017.2mb 53f 58f
1:00 6 10 mph 1017.2mb 53f 58f
12:54 7 11 mph 1017.2mb 53f 58f
12:48 6 10 mph 1017.3mb 53f 57f
12:36 6 7 mph 1017.3mb 53f 57f
12:30 5 8 mph 1017.3mb 53f 57f
12:24 5 9 mph 1017.3mb 53f 57f
12:18 5 7 mph 1017.3mb 53f 56f
12:12 3 7 mph 1017.3mb 54f 56f
12:06 5 9 mph 1017.4mb 54f 56f
12:00 5 10 mph 1017.4mb 54f 56f
11:54 3 6 mph 1017.4mb 55f 56f
11:48 5 6 mph 1017.4mb 55f 56f
11:36 5 7 mph 1017.5mb 55f 55f
11:30 5 8 mph 1017.5mb 54f 55f
11:24 6 7 mph 1017.5mb 54f 55f
11:18 6 7 mph 1017.5mb 55f 55f
11:12 5 9 mph 1017.5mb 55f 56f
11:06 6 8 mph 1017.5mb 55f 56f
11:00 6 8 mph 1017.5mb 55f 56f
10:54 8 11 mph 1017.5mb 55f 56f
10:48 6 10 mph 1017.5mb 55f 56f
10:36 6 10 mph 1017.6mb 55f 56f
10:30 5 7 mph 1017.5mb 54f 56f
10:24 5 7 mph 1017.6mb 54f 56f
10:18 6 9 mph 1017.5mb 54f 56f
10:12 8 10 mph 1017.5mb 54f 56f
10:06 8 10 mph 1017.5mb 54f 56f
10:00 8 10 mph 1017.5mb 54f 56f
9:54 8 13 mph 1017.5mb 54f 56f
9:48 10 13 mph 1017.4mb 54f 56f
9:36 8 11 mph 1017.4mb 54f 55f
9:30 8 10 mph 1017.3mb 54f 55f
9:24 7 9 mph 1017.3mb 54f 55f
9:18 8 11 mph 1017.2mb 54f 55f
9:12 8 9 mph 1017.2mb 54f 55f
9:06 8 10 mph 1017.2mb 54f 55f
9:00 8 10 mph 1017.2mb 54f 55f
8:54 8 10 mph 1017.2mb 54f 55f
8:48 8 10 mph 1017.2mb 54f 55f
8:36 10 11 mph 1017.2mb 54f 55f
8:30 7 9 mph 1017.2mb 54f 54f
8:24 8 10 mph 1017.2mb 54f 54f
8:18 8 10 mph 1017.1mb 54f 54f
8:12 3 6 mph 1017.1mb 54f 54f
8:06 2 3 mph 1017.1mb 54f 54f
8:00 3 6 mph 1017.1mb 54f 53f
7:54 3 5 mph 1017.1mb 54f 53f
7:48 3 7 mph 1017.1mb 54f 53f
7:36 3 6 mph 1017mb 54f 53f
7:30 3 6 mph 1017mb 54f 53f
7:24 3 5 mph 1017mb 54f 53f
7:18 2 3 mph 1016.9mb 54f 53f
7:12 3 5 mph 1016.9mb 54f 53f
7:06 2 5 mph 1016.8mb 54f 52f
7:00 3 6 mph 1016.7mb 54f 52f
6:54 2
mph
1016.7mb 54f 52f
6:48 1 2 mph 1016.6mb 54f 52f
6:36  -  1 mph 1016.6mb 54f 52f
6:30  -  1 mph 1016.6mb 54f 51f
6:24 1 2 mph 1016.5mb 54f 51f
6:18 1 2 mph 1016.6mb 54f 51f
6:12  -  2 mph 1016.5mb 54f 51f
6:06  -  2 mph 1016.5mb 54f 51f
6:00  -  2 mph 1016.5mb 54f 51f
5:54 1 2 mph 1016.5mb 54f 52f
5:48  -  1 mph 1016.5mb 54f 51f
5:36  -  mph 1016.5mb 54f 51f
5:30  -  mph 1016.5mb 54f 51f
5:24  -  1 mph 1016.4mb 54f 51f
5:18 1 2 mph 1016.4mb 54f 51f
5:12  -  1 mph 1016.4mb 54f 51f
5:06  -  2 mph 1016.4mb 54f 51f
5:00 1 2 mph 1016.3mb 54f 52f
4:54 1 2 mph 1016.3mb 54f 52f
4:48  -  1 mph 1016.2mb 54f 52f
4:36  -  1 mph 1016.2mb 54f 52f
4:30  -  1 mph 1016.2mb 54f 52f
4:24  -  1 mph 1016.3mb 54f 52f
4:18  -  1 mph 1016.3mb 54f 52f
4:12  -  1 mph 1016.2mb 54f 52f
4:06  -  1 mph 1016.2mb 54f 52f
4:00  -  1 mph 1016.2mb 54f 52f
3:54  -  mph 1016.1mb 54f 52f
3:48  -  mph 1016.1mb 54f 52f
3:36  -  1 mph 1016.1mb 54f 52f
3:30  -  1 mph 1016.2mb 54f 53f
3:24  -  1 mph 1016.2mb 54f 53f
3:18  -  mph 1016.2mb 54f 53f
3:12  -  1 mph 1016.2mb 54f 53f
3:06  -  mph 1016.3mb 54f 53f
3:00  -  1 mph 1016.3mb 54f 53f
2:54  -  1 mph 1016.3mb 54f 53f
2:48  -  2 mph 1016.3mb 54f 53f
2:36  -  2 mph 1016.2mb 54f 53f
2:30  -  2 mph 1016.2mb 54f 53f
2:24  -  mph 1016.1mb 54f 53f
2:18  -  1 mph 1016.1mb 54f 53f
2:12  -  mph 1016.1mb 54f 53f
2:06  -  2 mph 1016.1mb 54f 53f
2:00  -  1 mph 1016mb 54f 53f
1:54  -  1 mph 1016mb 54f 53f
1:48  -  2 mph 1015.9mb 54f 53f
1:36  -  1 mph 1015.8mb 54f 53f
1:30  -  2 mph 1015.9mb 54f 53f
1:24  -  1 mph 1015.9mb 55f 53f
1:18  -  1 mph 1015.9mb 55f 53f
1:12  -  1 mph 1015.9mb 55f 53f
1:06  -  1 mph 1015.9mb 55f 53f
1:00  -  1 mph 1015.9mb 55f 53f
12:54 1 2 mph 1015.8mb 55f 53f
12:48 1 3 mph 1015.8mb 55f 53f
12:36 1 2 mph 1015.7mb 55f 53f
12:30  -  1 mph 1015.7mb 55f 53f
12:24  -  1 mph 1015.7mb 55f 53f
12:18  -  1 mph 1015.7mb 55f 53f
12:12  -  1 mph 1015.7mb 55f 53f
12:06 1 2 mph 1015.7mb 55f 53f
12:00  -  1 mph 1015.7mb 55f 53f
mer. 08/20 11:54  -  1 mph 1015.7mb 55f 53f
11:48  -  2 mph 1015.6mb 55f 53f
11:36  -  1 mph 1015.6mb 55f 54f
11:30  -  1 mph 1015.5mb 55f 54f
11:24  -  1 mph 1015.6mb 55f 54f
11:18 2
mph
1015.5mb 55f 54f
11:12 2
mph
1015.5mb 55f 54f
11:06 2 3 mph 1015.4mb 55f 54f
11:00 3
mph
1015.4mb 55f 54f
10:54 3 5 mph 1015.3mb 55f 54f
10:48 5
mph
1015.3mb 55f 54f
10:36  -  3 mph 1015.3mb 54f 55f
10:30 3 7 mph 1015.2mb 54f 55f
10:24 6 8 mph 1015.2mb 54f 55f
10:18 7 8 mph 1015.2mb 54f 55f
10:12 6 7 mph 1015.2mb 54f 55f
10:06 5 6 mph 1015.1mb 54f 55f
10:00 3 5 mph 1015.1mb 54f 55f
9:54 3 6 mph 1015.1mb 54f 55f
9:48 2 6 mph 1015mb 54f 55f
9:36 6 8 mph 1015.1mb 54f 56f
9:30 5 6 mph 1015mb 54f 57f
9:24 3 5 mph 1015mb 54f 57f
9:18 2 3 mph 1014.9mb 54f 57f
9:12  -  2 mph 1014.8mb 54f 57f
9:06  -  2 mph 1014.8mb 54f 58f
9:00  -  2 mph 1014.7mb 54f 58f
8:54  -  2 mph 1014.7mb 54f 58f
8:48 2 5 mph 1014.6mb 54f 58f
8:36 6 9 mph 1014.6mb 54f 59f
8:30 5 6 mph 1014.5mb 54f 58f
8:24 6 7 mph 1014.5mb 54f 59f
8:18 8 9 mph 1014.5mb 54f 59f
8:12 6 8 mph 1014.5mb 54f 59f
8:06 7 9 mph 1014.4mb 54f 59f
8:00 8 10 mph 1014.4mb 54f 60f
7:54 9 10 mph 1014.4mb 54f 60f
7:48 9 11 mph 1014.4mb 54f 61f
7:36 7 9 mph 1014.3mb 54f 63f
7:30 7 10 mph 1014.3mb 55f 63f
7:24 6 8 mph 1014.2mb 55f 64f
7:18 6 8 mph 1014.3mb 55f 64f
7:12 7 8 mph 1014.2mb 55f 64f
7:06 7 9 mph 1014.2mb 55f 64f
7:00 6 9 mph 1014.2mb 54f 64f
6:54 7 8 mph 1014.2mb 54f 64f
6:48 7 9 mph 1014.1mb 54f 64f
6:36 6 8 mph 1014.2mb 54f 64f
6:30 3 6 mph 1014.2mb 54f 64f
6:24 6 9 mph 1014.2mb 54f 65f
6:18 6 9 mph 1014.2mb 54f 65f
6:12 6 8 mph 1014.3mb 54f 65f
6:06 6 8 mph 1014.3mb 54f 65f
6:00 6 8 mph 1014.4mb 54f 65f
5:54 6 7 mph 1014.4mb 54f 65f
5:48 6 8 mph 1014.3mb 54f 65f
5:36 6 7 mph 1014.4mb 54f 65f
5:30 6 7 mph 1014.4mb 54f 65f
5:24 3 6 mph 1014.5mb 54f 65f
5:18 2 6 mph 1014.5mb 55f 65f
5:12 5 7 mph 1014.6mb 55f 65f
5:06 6 8 mph 1014.6mb 55f 65f
5:00 6 8 mph 1014.6mb 55f 65f
4:54 7 8 mph 1014.6mb 55f 65f
4:48 3 6 mph 1014.6mb 55f 65f
4:36 5 6 mph 1014.6mb 55f 65f
4:30 3 6 mph 1014.7mb 55f 65f
4:24 3 6 mph 1014.7mb 54f 64f
4:18 3 5 mph 1014.8mb 53f 64f
4:12 3 6 mph 1014.7mb 53f 64f
4:06 5 8 mph 1014.7mb 52f 64f
4:00 3 6 mph 1014.7mb 52f 64f
3:54 5 6 mph 1014.7mb 52f 64f
3:48 5 6 mph 1014.7mb 52f 64f
3:36 3 6 mph 1014.8mb 52f 64f
3:30 6 10 mph 1014.9mb 53f 64f
3:24 8 10 mph 1014.9mb 52f 63f
3:18 6 9 mph 1014.9mb 52f 63f
3:12 5 10 mph 1015mb 52f 63f
3:06 7 11 mph 1015mb 53f 63f
3:00 7 10 mph 1015mb 53f 62f
2:54 6 13 mph 1015mb 53f 62f
2:48 7 10 mph 1015.1mb 53f 62f
2:36 7 11 mph 1015mb 53f 62f
2:30 8 11 mph 1015.1mb 53f 62f
2:24 8 11 mph 1015mb 53f 62f
2:18 8 11 mph 1015.1mb 53f 62f
2:12 8 11 mph 1015.1mb 54f 61f
2:06 8 11 mph 1015mb 54f 62f
2:00 7 11 mph 1015.1mb 54f 61f
1:54 8 13 mph 1015.1mb 53f 61f
1:48 7 10 mph 1015.1mb 52f 61f
1:36 9 14 mph 1015.2mb 53f 61f
1:30 9 11 mph 1015.2mb 52f 61f
1:24 7 13 mph 1015.2mb 52f 61f
1:18 9 11 mph 1015.1mb 52f 61f
1:12 9 11 mph 1015mb 53f 61f
1:06 8 11 mph 1015.1mb 53f 61f
1:00 9 14 mph 1015mb 53f 60f
12:54 8 14 mph 1015mb 53f 60f
12:48 8 15 mph 1015mb 53f 60f
12:36 6 10 mph 1015mb 53f 60f
12:30 9 11 mph 1015.1mb 53f 60f
12:24 8 10 mph 1015.1mb 53f 60f
12:18 7 10 mph 1015.1mb 53f 60f
12:12 8 11 mph 1015.1mb 53f 59f
12:06 8 11 mph 1015.1mb 53f 59f
12:00 9 10 mph 1015.2mb 53f 59f
11:54 8 10 mph 1015.1mb 53f 59f
11:48 7 10 mph 1015.1mb 53f 59f
11:36 7 10 mph 1015mb 53f 59f
11:30 6 13 mph 1014.9mb 53f 59f
11:24 6 10 mph 1014.8mb 54f 59f
11:18 7 10 mph 1014.7mb 54f 58f
11:12 3 7 mph 1014.6mb 55f 59f
11:06 5 7 mph 1014.6mb 55f 58f
11:00 5 11 mph 1014.7mb 55f 58f
10:54 7 11 mph 1014.7mb 55f 58f
10:48 9 11 mph 1014.7mb 55f 58f
10:36 8 13 mph 1014.6mb 55f 58f
10:30 9 14 mph 1014.6mb 55f 58f
10:24 11 16 mph 1014.6mb 55f 58f
10:18 10 15 mph 1014.6mb 55f 58f
10:12 9 14 mph 1014.5mb 55f 58f
10:06 6 9 mph 1014.5mb 55f 58f
10:00 2 5 mph 1014.4mb 55f 58f
9:54 2 3 mph 1014.4mb 55f 59f
9:48 2 6 mph 1014.3mb 55f 58f
9:36 3 6 mph 1014.2mb 55f 57f
9:30 3 5 mph 1014.1mb 55f 57f
9:24 1 2 mph 1014.1mb 55f 56f
9:18 2 3 mph 1014.1mb 55f 56f
9:12 2
mph
1014mb 55f 56f
9:06 2 5 mph 1014mb 55f 56f
9:00 2 6 mph 1014mb 55f 56f
8:54 3 7 mph 1013.9mb 55f 56f
8:48 5 7 mph 1013.9mb 55f 55f
8:36 3 7 mph 1013.9mb 55f 55f
8:30 3 6 mph 1013.8mb 55f 55f
8:24 3 5 mph 1013.8mb 55f 55f
8:18 3 7 mph 1013.8mb 55f 55f
8:12 5 8 mph 1013.7mb 55f 55f
8:06 3 8 mph 1013.7mb 55f 55f
8:00 5 8 mph 1013.6mb 55f 55f
7:54 6 8 mph 1013.4mb 55f 55f
7:48 6 9 mph 1013.4mb 55f 55f
7:36 6 7 mph 1013.3mb 55f 55f
7:30 5 7 mph 1013.3mb 55f 55f
7:24 6 8 mph 1013.2mb 55f 55f
7:18 6 8 mph 1013.1mb 55f 55f
7:12 6 7 mph 1013mb 55f 55f
7:06 5 6 mph 1013mb 55f 55f
7:00 6 7 mph 1012.9mb 55f 55f
6:54 5 7 mph 1012.8mb 55f 56f
6:48 6
mph
1012.8mb 55f 56f
6:36 2 3 mph 1012.6mb 55f 57f
6:30 2 6 mph 1012.5mb 55f 57f
6:24 5 9 mph 1012.4mb 55f 57f
6:18 6 8 mph 1012.4mb 55f 56f
6:12 3 5 mph 1012.3mb 55f 56f
6:06 2 5 mph 1012.2mb 55f 56f
6:00 3 6 mph 1012.1mb 55f 56f
5:54 5 7 mph 1012.1mb 55f 56f
5:48 6 8 mph 1011.9mb 55f 56f
5:36 5 6 mph 1011.8mb 55f 55f
5:30 5 8 mph 1011.8mb 55f 55f
5:24 8 11 mph 1011.7mb 55f 55f
5:18 6 9 mph 1011.5mb 55f 55f
5:12 7 9 mph 1011.5mb 55f 55f
5:06 9 11 mph 1011.4mb 55f 55f
5:00 7 9 mph 1011.4mb 55f 55f
4:54 9 10 mph 1011.3mb 55f 55f
4:48 6 7 mph 1011.3mb 54f 55f
4:36 3 6 mph 1011.3mb 54f 55f
4:30 5 6 mph 1011.2mb 54f 55f
4:24 3 7 mph 1011.2mb 54f 55f
4:18 5 7 mph 1011.2mb 54f 55f
4:12 5 7 mph 1011.1mb 54f 55f
4:06 5 6 mph 1011.1mb 54f 55f
4:00 3 6 mph 1011mb 54f 55f
3:54 2 5 mph 1011mb 54f 55f
3:48 3 5 mph 1011mb 54f 55f
3:36 3 5 mph 1010.9mb 54f 55f
3:30 2 6 mph 1010.9mb 54f 55f
3:24 3 5 mph 1010.9mb 54f 54f
3:18 3 6 mph 1010.8mb 54f 54f
3:12 3 5 mph 1010.8mb 54f 54f
3:06 2 6 mph 1010.7mb 54f 54f
3:00 5 8 mph 1010.6mb 54f 54f
2:54 7 11 mph 1010.7mb 54f 54f
2:48 7 10 mph 1010.8mb 54f 55f
2:36 5 9 mph 1010.6mb 54f 55f
2:30 6 8 mph 1010.5mb 54f 56f
2:24 6 8 mph 1010.4mb 54f 56f
2:18 6 9 mph 1010.2mb 54f 56f
2:12 3 5 mph 1010.1mb 54f 56f
2:06 2 3 mph 1010.2mb 54f 56f
2:00 3 5 mph 1010.1mb 54f 56f
1:54 5 7 mph 1010.1mb 54f 56f
1:48 7 8 mph 1010.1mb 54f 56f
1:36 5 6 mph 1010mb 54f 56f
1:30 3 5 mph 1010.1mb 54f 56f
1:24 5 6 mph 1010.1mb 54f 56f
1:18 3 6 mph 1010.1mb 54f 56f
1:12 3 6 mph 1010mb 54f 56f
1:06 2 5 mph 1010mb 54f 56f
1:00  -  3 mph 1009.9mb 54f 55f
12:54 2 3 mph 1009.8mb 54f 56f
12:48 2 5 mph 1009.7mb 54f 56f
12:36 1 3 mph 1009.6mb 54f 56f
12:30 2 3 mph 1009.5mb 54f 56f
12:24 1 2 mph 1009.5mb 54f 55f
12:18 2
mph
1009.4mb 54f 56f
12:12 2 3 mph 1009.3mb 54f 56f
12:06 1 3 mph 1009.3mb 54f 56f
12:00 2 3 mph 1009.2mb 55f 56f
mar. 08/19 11:54  -  2 mph 1009.1mb 55f 56f
11:48  -  1 mph 1009.1mb 55f 56f
11:36  -  1 mph 1009.1mb 55f 57f
11:30 1 3 mph 1009mb 55f 57f
11:24 1 2 mph 1008.9mb 55f 57f
11:18  -  1 mph 1008.8mb 55f 56f
11:12 1 2 mph 1008.8mb 55f 56f
11:06  -  1 mph 1008.8mb 55f 56f
11:00 1 3 mph 1008.7mb 55f 56f
10:54 2
mph
1008.8mb 55f 57f
10:48 1 2 mph 1008.8mb 55f 57f
10:36  -  1 mph 1008.8mb 55f 57f
10:30  -  1 mph 1008.8mb 55f 57f
10:24  -  1 mph 1008.7mb 55f 57f
10:18  -  1 mph 1008.6mb 55f 57f
10:12  -  1 mph 1008.6mb 55f 57f
10:06  -  2 mph 1008.6mb 55f 58f
10:00 2
mph
1008.6mb 55f 58f
9:54 1 3 mph 1008.7mb 55f 58f
9:48  -  1 mph 1008.7mb 55f 59f
9:36 1
mph
1008.6mb 55f 59f
9:30  -  2 mph 1008.6mb 55f 60f
9:24 1 3 mph 1008.5mb 55f 60f
9:18  -  2 mph 1008.5mb 55f 61f
9:12 1 3 mph 1008.5mb 55f 61f
9:06 2 3 mph 1008.4mb 55f 61f
9:00  -  2 mph 1008.4mb 55f 59f
8:54  -  2 mph 1008.4mb 55f 59f
8:48 1 2 mph 1008.3mb 55f 59f
8:36  -  2 mph 1008.3mb 55f 60f
8:30 2 3 mph 1008.2mb 55f 60f
8:24 1 5 mph 1008.2mb 55f 60f
8:18 2 6 mph 1008.2mb 55f 60f
8:12 1 5 mph 1008.2mb 55f 60f
8:06 2 3 mph 1008.2mb 55f 60f
8:00 1 3 mph 1008.2mb 55f 60f
7:54 2 5 mph 1008.3mb 55f 60f
7:48 3 5 mph 1008.2mb 55f 59f
7:36 2 3 mph 1008.2mb 55f 58f
7:30 3 5 mph 1008.2mb 55f 58f
7:24 3 5 mph 1008.2mb 55f 57f
7:18 2 5 mph 1008.1mb 55f 58f
7:12 3 5 mph 1008.2mb 55f 57f
7:06 2 5 mph 1008.2mb 55f 57f
7:00 5 6 mph 1008.2mb 55f 57f
6:54 6 7 mph 1008.2mb 55f 57f
6:48 3 7 mph 1008.2mb 55f 58f
6:36 6 7 mph 1008.3mb 54f 58f
6:30 6 7 mph 1008.3mb 54f 58f
6:24 3 5 mph 1008.3mb 54f 61f
6:18 1 2 mph 1008.4mb 54f 62f
6:12 2 5 mph 1008.6mb 54f 61f
6:06 1 2 mph 1008.6mb 54f 62f
6:00 2
mph
1008.6mb 53f 62f
5:54 2 3 mph 1008.6mb 53f 62f
5:48 3
mph
1008.6mb 54f 61f
5:36 1 3 mph 1008.5mb 54f 62f
5:30 2 3 mph 1008.6mb 53f 62f
5:24 1 6 mph 1008.6mb 53f 61f
5:18 6 7 mph 1008.7mb 54f 60f
5:12 3 6 mph 1008.7mb 54f 62f
5:06 2 6 mph 1008.6mb 54f 62f
5:00 6 7 mph 1008.6mb 54f 62f
4:54 6 7 mph - - 62f
4:48 6
mph
1008.7mb 54f 62f
4:36 6 7 mph 1008.8mb 54f 61f
4:30 7 9 mph 1008.9mb 54f 61f
4:24 6 7 mph 1008.9mb 53f 62f
4:18 6 7 mph 1008.8mb 54f 61f
4:12 7 8 mph 1008.9mb 53f 61f
4:06 7 9 mph 1009mb 53f 61f
4:00 7 9 mph 1009mb 53f 62f
3:54 8 9 mph 1009.1mb 53f 61f
3:48 7 8 mph 1009.1mb 53f 61f
3:36 8 11 mph 1009.3mb 53f 61f
3:30 8 13 mph 1009.3mb 53f 61f
3:24 9 13 mph 1009.3mb 52f 61f
3:18 7 11 mph 1009.3mb 52f 62f
3:12 9 13 mph 1009.5mb 52f 62f
3:06 9 13 mph 1009.5mb 52f 62f
3:00 9 13 mph 1009.5mb 52f 63f
2:54 9 13 mph 1009.5mb 52f 64f
2:48 9 11 mph 1009.5mb 52f 66f
2:36 7 10 mph 1009.5mb 52f 67f
2:30 6 8 mph 1009.5mb 52f 67f
2:24 3 6 mph 1009.6mb 52f 67f
2:18 3 6 mph 1009.6mb 52f 67f
2:12 5 9 mph 1009.7mb 52f 67f
2:06 8 9 mph 1009.8mb 52f 67f
2:00 8 13 mph 1009.7mb 52f 66f
1:54 11 15 mph 1009.8mb 52f 66f
1:48 14 17 mph 1009.8mb 52f 67f
1:36 10 14 mph 1009.8mb 52f 68f
1:30 13 17 mph 1009.8mb 52f 67f
1:24 14 18 mph 1009.9mb 52f 67f
1:18 13 17 mph 1009.8mb 52f 67f
1:12 14 18 mph 1009.9mb 52f 68f
1:06 15 20 mph 1009.9mb 52f 68f
1:00 13 16 mph 1009.9mb 52f 68f
12:54 9 16 mph 1010mb 52f 67f